Terminal Aerodrome Forecast
Issued by NWS Central Illinois

Home | Current Version | Previous Version | Text Only | Print | Product List | Glossary On
Versions: 1 2 3 4 5 6 7 8 9 10 11 12
015
FTUS43 KILX 251805 AAA
TAFSPI
TAF AMD
KSPI 251805Z 2518/2618 16014G24KT P6SM BKN200
     FM260000 17014KT P6SM BKN200
     FM261000 18011KT P6SM VCSH BKN030
     FM261600 19012G20KT P6SM VCTS BKN035CB=

USA.gov is the U.S. government's official web portal to all federal, state and local government web resources and services.